createdAt,value
2024-01-15T07:03:34.543Z,22.38
2024-01-15T07:06:02.857Z,21.35
2024-01-15T07:08:31.194Z,21.65
2024-01-15T07:10:59.277Z,26.63
2024-01-15T07:13:27.340Z,27.05
2024-01-15T07:15:55.588Z,24.98
2024-01-15T07:18:24.708Z,21.40
2024-01-15T07:20:54.295Z,25.63
2024-01-15T07:23:22.413Z,26.65
2024-01-15T07:25:50.463Z,24.27
2024-01-15T07:28:18.593Z,27.90
2024-01-15T07:30:46.758Z,27.17
2024-01-15T07:33:15.115Z,28.70
2024-01-15T07:35:43.329Z,28.33
2024-01-15T07:38:12.986Z,29.13
2024-01-15T07:40:41.278Z,42.90
2024-01-15T07:43:09.383Z,29.65
2024-01-15T07:45:37.699Z,33.53
2024-01-15T07:48:06.554Z,50.83
2024-01-15T07:50:34.715Z,35.90
2024-01-15T07:53:02.950Z,37.72
2024-01-15T07:55:33.043Z,37.53
2024-01-15T07:58:11.203Z,35.80
2024-01-15T08:00:43.866Z,43.25
2024-01-15T08:03:12.888Z,39.47
2024-01-15T08:05:41.050Z,39.35
2024-01-15T08:08:09.137Z,38.88
2024-01-15T08:10:38.594Z,36.47
2024-01-15T08:13:09.083Z,39.50
2024-01-15T08:15:37.456Z,41.80
2024-01-15T08:18:05.918Z,38.25
2024-01-15T08:20:34.156Z,39.78
2024-01-15T08:23:02.258Z,39.92
2024-01-15T08:25:30.428Z,40.10
2024-01-15T08:28:00.049Z,39.40
2024-01-15T08:30:29.176Z,42.53
2024-01-15T08:33:02.341Z,41.65
2024-01-15T08:35:36.567Z,41.47
2024-01-15T08:38:04.956Z,42.38
2024-01-15T08:40:33.034Z,42.90
2024-01-15T08:43:03.265Z,42.05
2024-01-15T08:45:32.373Z,40.47
2024-01-15T08:48:01.460Z,43.75
2024-01-15T08:50:29.603Z,39.17
2024-01-15T08:52:57.757Z,43.55
2024-01-15T08:55:25.914Z,43.28
2024-01-15T08:57:54.127Z,51.42
2024-01-15T09:00:23.748Z,45.17
2024-01-15T09:02:51.828Z,48.35
2024-01-15T09:05:20.118Z,48.67
2024-01-15T09:07:48.751Z,48.67
2024-01-15T09:10:17.459Z,44.13
2024-01-15T09:12:45.612Z,47.67
2024-01-15T09:15:13.804Z,46.13
2024-01-15T09:17:43.900Z,46.17
2024-01-15T09:20:12.603Z,47.45
2024-01-15T09:22:41.776Z,47.00
2024-01-15T09:25:10.924Z,45.63
2024-01-15T09:27:39.282Z,46.08
2024-01-15T09:30:09.554Z,41.17
2024-01-15T09:32:38.033Z,43.78
2024-01-15T09:35:08.702Z,44.95
2024-01-15T09:37:44.706Z,44.47
2024-01-15T09:40:16.984Z,47.00
2024-01-15T09:42:45.700Z,44.40
2024-01-15T09:45:14.133Z,55.08
2024-01-15T09:47:45.433Z,65.18
2024-01-15T09:50:17.217Z,59.70
2024-01-15T09:52:54.685Z,60.13
2024-01-15T09:55:22.758Z,63.03
2024-01-15T09:57:51.447Z,60.22
2024-01-15T10:00:21.118Z,61.35
2024-01-15T10:02:49.276Z,58.65
2024-01-15T10:05:18.812Z,63.88
2024-01-15T10:07:46.899Z,58.42
2024-01-15T10:10:15.245Z,54.95
2024-01-15T10:12:43.372Z,55.80
2024-01-15T10:15:12.739Z,55.28
2024-01-15T10:17:41.139Z,60.08
2024-01-15T10:20:12.068Z,59.22
2024-01-15T10:22:43.045Z,82.43
2024-01-15T10:25:13.009Z,88.03
2024-01-15T10:27:41.333Z,85.90
2024-01-15T10:30:10.439Z,86.80
2024-01-15T10:32:38.673Z,75.68
2024-01-15T10:35:07.430Z,74.88
2024-01-15T10:37:35.728Z,73.82
2024-01-15T10:40:07.337Z,69.60
2024-01-15T10:42:35.650Z,67.93
2024-01-15T10:45:03.787Z,67.05
2024-01-15T10:47:31.932Z,69.72
2024-01-15T10:50:00.727Z,69.15
2024-01-15T10:52:29.287Z,59.63
2024-01-15T10:54:57.686Z,57.33
2024-01-15T10:57:27.230Z,58.58
2024-01-15T10:59:55.405Z,60.45
2024-01-15T11:02:23.673Z,56.70
2024-01-15T11:04:51.930Z,55.30
2024-01-15T11:07:20.169Z,55.97
2024-01-15T11:09:48.691Z,53.20
2024-01-15T11:12:18.562Z,52.92
2024-01-15T11:14:49.912Z,54.40
2024-01-15T11:17:18.634Z,49.95
2024-01-15T11:19:47.666Z,50.22
2024-01-15T11:22:45.741Z,51.13
2024-01-15T11:25:15.517Z,54.45
2024-01-15T11:27:44.327Z,56.33
2024-01-15T11:30:14.800Z,56.58
2024-01-15T11:32:44.183Z,57.33
2024-01-15T11:35:13.006Z,53.60
2024-01-15T11:37:59.531Z,56.13
2024-01-15T11:40:43.748Z,53.85
2024-01-15T11:43:14.364Z,54.63
2024-01-15T11:45:44.340Z,53.03
2024-01-15T11:48:14.503Z,54.00
2024-01-15T11:50:44.295Z,53.72
2024-01-15T11:53:30.021Z,54.38
2024-01-15T11:56:00.409Z,54.42
2024-01-15T11:58:28.574Z,55.33
2024-01-15T12:00:58.472Z,60.15
2024-01-15T12:03:26.810Z,53.65
2024-01-15T12:05:55.168Z,51.15
2024-01-15T12:08:24.096Z,57.75
2024-01-15T12:10:52.603Z,48.78
2024-01-15T12:13:20.870Z,51.53
2024-01-15T12:15:49.907Z,49.45
2024-01-15T12:18:21.091Z,48.28
2024-01-15T12:20:49.935Z,49.58
2024-01-15T12:23:19.159Z,49.90
2024-01-15T12:25:48.234Z,53.30
2024-01-15T12:28:16.853Z,61.53
2024-01-15T12:30:45.939Z,53.60
2024-01-15T12:33:14.309Z,56.95
2024-01-15T12:35:43.977Z,52.60
2024-01-15T12:38:13.707Z,52.05
2024-01-15T12:40:42.132Z,54.42
2024-01-15T12:43:10.805Z,54.38
2024-01-15T12:45:39.400Z,52.47
2024-01-15T12:48:08.451Z,52.33
2024-01-15T12:50:36.850Z,50.35
2024-01-15T12:53:06.745Z,50.17
2024-01-15T12:55:35.741Z,52.75
2024-01-15T12:58:04.004Z,49.83
2024-01-15T13:00:32.200Z,50.00
2024-01-15T13:03:01.937Z,49.58
2024-01-15T13:05:30.328Z,49.95
2024-01-15T13:07:58.950Z,49.05
2024-01-15T13:10:31.122Z,50.53
2024-01-15T13:12:59.382Z,47.72
2024-01-15T13:15:29.762Z,49.05
2024-01-15T13:17:58.391Z,52.50
2024-01-15T13:20:26.734Z,51.00
2024-01-15T13:22:54.987Z,49.03
2024-01-15T13:25:23.265Z,48.20
2024-01-15T13:27:53.095Z,49.75
2024-01-15T13:30:21.805Z,48.63
2024-01-15T13:32:50.162Z,49.92
2024-01-15T13:35:18.427Z,47.10
2024-01-15T13:37:46.923Z,48.38
2024-01-15T13:40:18.297Z,47.03
2024-01-15T13:42:48.526Z,47.10
2024-01-15T13:45:18.866Z,44.45
2024-01-15T13:47:47.238Z,44.72
2024-01-15T13:50:15.686Z,44.47
2024-01-15T13:52:43.873Z,44.92
2024-01-15T13:55:12.099Z,46.45
2024-01-15T13:57:40.394Z,44.25
2024-01-15T14:00:13.222Z,44.55
2024-01-15T14:02:43.855Z,44.95
2024-01-15T14:05:13.987Z,43.35
2024-01-15T14:07:42.803Z,43.30
2024-01-15T14:10:11.952Z,44.88
2024-01-15T14:12:40.928Z,41.55
2024-01-15T14:15:10.259Z,40.38
2024-01-15T14:17:38.597Z,41.95
2024-01-15T14:20:11.308Z,41.83
2024-01-15T14:22:39.621Z,41.05
2024-01-15T14:25:08.473Z,42.95
2024-01-15T14:27:37.573Z,40.13
2024-01-15T14:30:09.702Z,40.38
2024-01-15T14:32:38.281Z,39.95
2024-01-15T14:35:09.646Z,39.95
2024-01-15T14:37:38.053Z,39.20
2024-01-15T14:40:08.828Z,39.00
2024-01-15T14:42:37.876Z,38.33
2024-01-15T14:45:12.820Z,37.78
2024-01-15T14:47:41.367Z,38.22
2024-01-15T14:50:13.518Z,39.05
2024-01-15T14:52:43.206Z,42.00
2024-01-15T14:55:11.830Z,39.72
2024-01-15T14:57:40.108Z,38.15
2024-01-15T15:00:10.396Z,37.58
2024-01-15T15:02:38.939Z,39.10
2024-01-15T15:05:08.365Z,39.83
2024-01-15T15:07:38.549Z,39.53
2024-01-15T15:10:07.900Z,40.47
2024-01-15T15:12:36.417Z,40.95
2024-01-15T15:15:09.274Z,36.38
2024-01-15T15:17:40.151Z,38.17
2024-01-15T15:20:09.924Z,39.08
2024-01-15T15:22:39.771Z,41.75
2024-01-15T15:25:09.801Z,44.40
2024-01-15T15:27:38.831Z,42.17
2024-01-15T15:30:08.514Z,43.90
2024-01-15T15:32:36.794Z,41.42
2024-01-15T15:35:05.641Z,46.28
2024-01-15T15:37:34.034Z,40.63
2024-01-15T15:40:04.211Z,39.80
2024-01-15T15:42:32.466Z,45.67
2024-01-15T15:45:02.844Z,53.25
2024-01-15T15:47:31.645Z,48.90
2024-01-15T15:49:59.986Z,50.95
2024-01-15T15:52:28.275Z,50.53
2024-01-15T15:54:56.579Z,51.47
2024-01-15T15:57:27.385Z,50.55
2024-01-15T15:59:56.072Z,54.45
2024-01-15T16:02:24.310Z,50.42
2024-01-15T16:04:52.637Z,51.20
2024-01-15T16:07:21.129Z,50.53
2024-01-15T16:09:49.401Z,48.05
2024-01-15T16:12:17.651Z,51.22
2024-01-15T16:14:47.959Z,48.92
2024-01-15T16:23:15.008Z,52.03
2024-01-15T16:23:28.765Z,49.40
2024-01-15T16:23:44.295Z,48.90
2024-01-15T16:25:41.783Z,47.80
2024-01-15T16:28:11.172Z,47.90
2024-01-15T16:30:45.381Z,51.50
2024-01-15T16:33:15.827Z,46.88
2024-01-15T16:35:44.269Z,51.25
2024-01-15T16:38:13.050Z,48.42
2024-01-15T16:40:41.500Z,49.90
2024-01-15T16:43:10.233Z,51.13
2024-01-15T16:45:40.841Z,46.20
2024-01-15T16:48:09.485Z,52.80
2024-01-15T16:50:37.923Z,56.60
2024-01-15T16:53:06.480Z,52.70
2024-01-15T16:55:34.698Z,49.53
2024-01-15T16:58:04.789Z,48.47
2024-01-15T17:00:33.068Z,50.67
2024-01-15T17:03:02.857Z,54.53
2024-01-15T17:05:31.216Z,50.67
2024-01-15T17:07:59.507Z,50.13
2024-01-15T17:10:27.869Z,51.60
2024-01-15T17:12:56.191Z,48.75
2024-01-15T17:15:24.391Z,49.97
2024-01-15T17:17:52.834Z,47.78
2024-01-15T17:20:22.534Z,49.55
2024-01-15T17:22:50.935Z,48.45
2024-01-15T17:25:19.117Z,50.78
2024-01-15T17:27:47.686Z,50.70
2024-01-15T17:30:16.376Z,48.63
2024-01-15T17:32:44.653Z,47.72
2024-01-15T17:35:13.047Z,48.05
2024-01-15T17:37:42.616Z,47.30
2024-01-15T17:40:11.672Z,48.08
2024-01-15T17:42:39.828Z,53.97
2024-01-15T17:45:08.878Z,63.90
2024-01-15T17:47:37.122Z,56.30
2024-01-15T17:50:05.943Z,54.55
2024-01-15T17:52:34.208Z,57.97
2024-01-15T17:55:03.987Z,54.67
2024-01-15T17:57:32.172Z,55.20
2024-01-15T18:00:00.463Z,53.88
2024-01-15T18:02:29.102Z,53.25
2024-01-15T18:04:57.512Z,56.13
2024-01-15T18:07:25.781Z,51.42
2024-01-15T18:09:53.955Z,54.85
2024-01-15T18:12:23.552Z,52.33
2024-01-15T18:14:51.741Z,51.75
2024-01-15T18:17:21.948Z,52.60
2024-01-15T18:19:50.227Z,50.88
2024-01-15T18:22:18.492Z,50.72
2024-01-15T18:24:47.268Z,50.83
2024-01-15T18:27:15.412Z,52.03
2024-01-15T18:29:45.127Z,48.65
2024-01-15T18:32:13.519Z,43.50
2024-01-15T18:34:42.863Z,39.47
2024-01-15T18:37:11.176Z,43.13
2024-01-15T18:39:39.353Z,40.58
2024-01-15T18:42:07.548Z,39.92
2024-01-15T18:44:35.927Z,42.92
2024-01-15T18:47:05.934Z,41.60
2024-01-15T18:49:34.220Z,52.13
2024-01-15T18:52:02.427Z,48.20
2024-01-15T18:54:30.625Z,49.33
2024-01-15T18:56:58.821Z,51.30
2024-01-15T18:59:27.107Z,48.92
2024-01-15T19:01:55.380Z,51.33
2024-01-15T19:04:25.819Z,50.72
2024-01-15T19:06:54.093Z,47.17
2024-01-15T19:09:22.297Z,49.20
2024-01-15T19:11:50.532Z,47.58
2024-01-15T19:14:18.944Z,50.75
2024-01-15T19:16:47.594Z,53.30
2024-01-15T19:19:15.815Z,47.65
2024-01-15T19:21:47.528Z,47.55
2024-01-15T19:24:16.927Z,51.30
2024-01-15T19:26:45.140Z,47.70
2024-01-15T19:29:13.448Z,47.08
2024-01-15T19:31:41.618Z,49.92
2024-01-15T19:34:10.328Z,50.15
2024-01-15T19:36:38.555Z,44.55
2024-01-15T19:39:10.629Z,45.90
2024-01-15T19:41:38.962Z,53.05
2024-01-15T19:44:08.314Z,51.03
2024-01-15T19:46:36.491Z,47.70
2024-01-15T19:49:04.785Z,47.00
2024-01-15T19:51:33.045Z,50.25
2024-01-15T19:54:01.311Z,46.65
2024-01-15T19:56:30.941Z,46.58
2024-01-15T19:58:59.161Z,46.33
2024-01-15T20:01:27.416Z,43.25
2024-01-15T20:03:55.631Z,44.92
2024-01-15T20:06:24.771Z,44.85
2024-01-15T20:08:54.378Z,42.30
2024-01-15T20:11:22.625Z,43.95
2024-01-15T20:13:52.255Z,42.55
2024-01-15T20:16:20.411Z,41.42
2024-01-15T20:18:49.165Z,42.00
2024-01-15T20:21:17.713Z,45.30
2024-01-15T20:23:54.676Z,42.00
2024-01-15T20:26:27.000Z,39.17
2024-01-15T20:28:56.923Z,42.03
2024-01-15T20:31:25.106Z,42.25
2024-01-15T20:33:53.324Z,41.97
2024-01-15T20:36:21.614Z,44.15
2024-01-15T20:38:49.806Z,42.33
2024-01-15T20:41:18.443Z,39.83
2024-01-15T20:43:46.657Z,39.80
2024-01-15T20:46:16.276Z,39.90
2024-01-15T20:48:44.731Z,40.08
2024-01-15T20:51:12.903Z,39.70
2024-01-15T20:53:42.107Z,38.90
2024-01-15T20:56:11.000Z,41.00
2024-01-15T20:58:39.291Z,43.35
2024-01-15T21:01:08.052Z,38.45
2024-01-15T21:03:37.728Z,38.38
2024-01-15T21:06:06.252Z,41.20
2024-01-15T21:08:34.754Z,36.65
2024-01-15T21:11:05.299Z,37.58
2024-01-15T21:13:34.575Z,33.97
2024-01-15T21:16:03.201Z,36.30
2024-01-15T21:18:31.560Z,38.55
2024-01-15T21:21:01.534Z,34.97
2024-01-15T21:23:31.281Z,36.72
2024-01-15T21:26:00.871Z,34.20
2024-01-15T21:28:31.334Z,33.35
2024-01-15T21:31:00.744Z,36.75
2024-01-15T21:33:33.153Z,36.75
2024-01-15T21:36:04.058Z,34.80
2024-01-15T21:38:32.428Z,36.00
2024-01-15T21:41:00.823Z,35.97
2024-01-15T21:43:29.166Z,33.40
2024-01-15T21:45:57.629Z,33.03
2024-01-15T21:48:26.134Z,32.67
2024-01-15T21:50:55.290Z,36.65
2024-01-15T21:53:25.325Z,32.33
2024-01-15T21:55:53.884Z,32.70
2024-01-15T21:58:22.184Z,35.28
2024-01-15T22:00:50.657Z,32.00
2024-01-15T22:03:19.128Z,33.30
2024-01-15T22:05:47.988Z,30.15
2024-01-15T22:08:16.579Z,30.48
2024-01-15T22:10:46.230Z,30.83
2024-01-15T22:13:14.632Z,32.33
2024-01-15T22:15:43.572Z,32.33
2024-01-15T22:18:12.273Z,31.75
2024-01-15T22:20:41.087Z,31.95
2024-01-15T22:23:10.627Z,31.63
2024-01-15T22:25:39.074Z,30.77
2024-01-15T22:28:09.290Z,30.88
2024-01-15T22:30:37.672Z,29.77
2024-01-15T22:33:06.237Z,31.40
2024-01-15T22:35:34.632Z,30.20
2024-01-15T22:38:02.966Z,29.05
2024-01-15T22:40:32.841Z,29.30
2024-01-15T22:43:01.043Z,28.60
2024-01-15T22:45:30.677Z,30.20
2024-01-15T22:47:59.102Z,28.88
2024-01-15T22:50:27.505Z,29.45
2024-01-15T22:52:55.696Z,27.83
2024-01-15T22:55:23.817Z,27.50
2024-01-15T22:57:52.016Z,28.50
2024-01-15T23:00:20.766Z,26.88
2024-01-15T23:02:50.939Z,28.05
2024-01-15T23:05:19.527Z,27.17
2024-01-15T23:07:48.481Z,28.75
2024-01-15T23:10:16.808Z,28.30
2024-01-15T23:12:44.966Z,26.85
2024-01-15T23:15:13.258Z,26.73
2024-01-15T23:17:41.921Z,27.35
2024-01-15T23:20:13.497Z,27.08
2024-01-15T23:22:41.996Z,26.50
2024-01-15T23:25:10.871Z,28.20
2024-01-15T23:27:39.206Z,27.40
2024-01-15T23:30:08.879Z,24.98
2024-01-15T23:32:37.177Z,25.75
2024-01-15T23:35:06.537Z,27.13
2024-01-15T23:37:36.194Z,25.50
2024-01-15T23:40:05.853Z,25.50
2024-01-15T23:42:34.254Z,25.70
2024-01-15T23:45:02.506Z,24.55
2024-01-15T23:47:30.811Z,23.10
2024-01-15T23:49:59.080Z,25.23
2024-01-15T23:52:27.621Z,24.90
2024-01-15T23:54:57.258Z,24.42
2024-01-15T23:57:25.920Z,23.98
2024-01-15T23:59:54.072Z,24.67
